sensor_id;sensor_type;location;lat;lon;timestamp;temperature;humidity
10453;DHT22;5274;51.992;8.518;2022-12-19T00:01:12;-0.30;99.90
10453;DHT22;5274;51.992;8.518;2022-12-19T00:03:45;-0.30;99.90
10453;DHT22;5274;51.992;8.518;2022-12-19T00:06:12;-0.30;1.00
10453;DHT22;5274;51.992;8.518;2022-12-19T00:08:40;-0.30;99.90
10453;DHT22;5274;51.992;8.518;2022-12-19T00:11:07;-0.30;99.90
10453;DHT22;5274;51.992;8.518;2022-12-19T00:13:33;-0.20;99.90
10453;DHT22;5274;51.992;8.518;2022-12-19T00:16:13;-0.20;99.90
10453;DHT22;5274;51.992;8.518;2022-12-19T00:18:39;-0.20;1.00
10453;DHT22;5274;51.992;8.518;2022-12-19T00:21:05;-0.20;1.00
10453;DHT22;5274;51.992;8.518;2022-12-19T00:23:33;-0.20;11.00
10453;DHT22;5274;51.992;8.518;2022-12-19T00:26:13;-0.20;1.00
10453;DHT22;5274;51.992;8.518;2022-12-19T00:28:40;-0.10;1.00
10453;DHT22;5274;51.992;8.518;2022-12-19T00:31:07;-0.10;1.00
10453;DHT22;5274;51.992;8.518;2022-12-19T00:33:33;-0.10;1.00
10453;DHT22;5274;51.992;8.518;2022-12-19T00:35:59;-0.10;1.00
10453;DHT22;5274;51.992;8.518;2022-12-19T00:38:25;0.00;1.00
10453;DHT22;5274;51.992;8.518;2022-12-19T00:40:51;0.00;1.00
10453;DHT22;5274;51.992;8.518;2022-12-19T00:43:16;0.00;1.00
10453;DHT22;5274;51.992;8.518;2022-12-19T00:45:42;0.10;1.00
10453;DHT22;5274;51.992;8.518;2022-12-19T00:48:07;0.00;99.90
10453;DHT22;5274;51.992;8.518;2022-12-19T00:50:33;0.10;99.90
10453;DHT22;5274;51.992;8.518;2022-12-19T00:52:58;0.10;99.90
10453;DHT22;5274;51.992;8.518;2022-12-19T00:55:24;0.20;1.00
10453;DHT22;5274;51.992;8.518;2022-12-19T00:57:50;0.20;1.00
10453;DHT22;5274;51.992;8.518;2022-12-19T01:00:16;0.20;99.90
10453;DHT22;5274;51.992;8.518;2022-12-19T01:02:42;0.20;1.00
10453;DHT22;5274;51.992;8.518;2022-12-19T01:05:08;0.20;1.00
10453;DHT22;5274;51.992;8.518;2022-12-19T01:07:34;0.20;99.90
10453;DHT22;5274;51.992;8.518;2022-12-19T01:10:00;0.30;99.90
10453;DHT22;5274;51.992;8.518;2022-12-19T01:12:26;0.20;99.90
10453;DHT22;5274;51.992;8.518;2022-12-19T01:15:10;0.30;99.90
10453;DHT22;5274;51.992;8.518;2022-12-19T01:17:36;0.20;1.00
10453;DHT22;5274;51.992;8.518;2022-12-19T01:20:02;0.20;29.80
10453;DHT22;5274;51.992;8.518;2022-12-19T01:22:28;0.30;97.00
10453;DHT22;5274;51.992;8.518;2022-12-19T01:24:54;0.30;99.90
10453;DHT22;5274;51.992;8.518;2022-12-19T01:27:19;0.30;99.90
10453;DHT22;5274;51.992;8.518;2022-12-19T01:29:45;0.30;99.90
10453;DHT22;5274;51.992;8.518;2022-12-19T01:32:10;0.30;99.90
10453;DHT22;5274;51.992;8.518;2022-12-19T01:34:36;0.30;1.00
10453;DHT22;5274;51.992;8.518;2022-12-19T01:37:01;0.30;32.10
10453;DHT22;5274;51.992;8.518;2022-12-19T01:39:27;0.30;8.40
10453;DHT22;5274;51.992;8.518;2022-12-19T01:41:52;0.30;99.90
10453;DHT22;5274;51.992;8.518;2022-12-19T01:44:18;0.40;99.90
10453;DHT22;5274;51.992;8.518;2022-12-19T01:46:48;0.40;99.90
10453;DHT22;5274;51.992;8.518;2022-12-19T01:49:24;0.40;99.90
10453;DHT22;5274;51.992;8.518;2022-12-19T01:51:51;0.40;99.90
10453;DHT22;5274;51.992;8.518;2022-12-19T01:54:24;0.40;99.90
10453;DHT22;5274;51.992;8.518;2022-12-19T01:56:53;0.40;99.90
10453;DHT22;5274;51.992;8.518;2022-12-19T01:59:31;0.50;99.90
10453;DHT22;5274;51.992;8.518;2022-12-19T02:02:07;0.40;99.90
10453;DHT22;5274;51.992;8.518;2022-12-19T02:04:35;0.50;99.90
10453;DHT22;5274;51.992;8.518;2022-12-19T02:07:03;0.50;99.90
10453;DHT22;5274;51.992;8.518;2022-12-19T02:09:29;0.50;99.90
10453;DHT22;5274;51.992;8.518;2022-12-19T02:11:55;0.60;99.90
10453;DHT22;5274;51.992;8.518;2022-12-19T02:14:22;0.50;99.90
10453;DHT22;5274;51.992;8.518;2022-12-19T02:25:57;0.60;99.90
10453;DHT22;5274;51.992;8.518;2022-12-19T02:31:34;0.60;99.90
10453;DHT22;5274;51.992;8.518;2022-12-19T02:34:22;0.60;1.00
10453;DHT22;5274;51.992;8.518;2022-12-19T02:36:54;0.60;99.90
10453;DHT22;5274;51.992;8.518;2022-12-19T02:39:40;0.60;99.90
10453;DHT22;5274;51.992;8.518;2022-12-19T02:42:09;0.60;99.90
10453;DHT22;5274;51.992;8.518;2022-12-19T02:44:44;0.60;99.90
10453;DHT22;5274;51.992;8.518;2022-12-19T02:47:12;0.70;99.90
10453;DHT22;5274;51.992;8.518;2022-12-19T02:49:38;0.70;99.90
10453;DHT22;5274;51.992;8.518;2022-12-19T02:52:12;0.70;99.90
10453;DHT22;5274;51.992;8.518;2022-12-19T02:55:00;0.70;99.90
10453;DHT22;5274;51.992;8.518;2022-12-19T02:57:31;0.70;93.70
10453;DHT22;5274;51.992;8.518;2022-12-19T03:02:46;0.80;25.60
10453;DHT22;5274;51.992;8.518;2022-12-19T03:08:27;0.80;99.90
10453;DHT22;5274;51.992;8.518;2022-12-19T03:11:00;0.80;99.90
10453;DHT22;5274;51.992;8.518;2022-12-19T03:13:35;0.70;99.90
10453;DHT22;5274;51.992;8.518;2022-12-19T03:16:03;0.70;99.90
10453;DHT22;5274;51.992;8.518;2022-12-19T03:18:31;0.70;99.90
10453;DHT22;5274;51.992;8.518;2022-12-19T03:23:42;0.70;99.90
10453;DHT22;5274;51.992;8.518;2022-12-19T03:26:13;0.80;99.90
10453;DHT22;5274;51.992;8.518;2022-12-19T03:28:48;0.80;99.90
10453;DHT22;5274;51.992;8.518;2022-12-19T03:31:18;0.80;99.90
10453;DHT22;5274;51.992;8.518;2022-12-19T03:33:48;0.80;99.90
10453;DHT22;5274;51.992;8.518;2022-12-19T03:36:18;0.80;99.90
10453;DHT22;5274;51.992;8.518;2022-12-19T03:38:46;0.90;99.90
10453;DHT22;5274;51.992;8.518;2022-12-19T03:41:14;0.90;99.90
10453;DHT22;5274;51.992;8.518;2022-12-19T03:43:43;0.90;99.90
10453;DHT22;5274;51.992;8.518;2022-12-19T03:46:23;0.90;99.90
10453;DHT22;5274;51.992;8.518;2022-12-19T03:48:51;0.90;99.90
10453;DHT22;5274;51.992;8.518;2022-12-19T03:57:11;0.90;99.90
10453;DHT22;5274;51.992;8.518;2022-12-19T03:59:54;0.90;99.90
10453;DHT22;5274;51.992;8.518;2022-12-19T04:02:22;0.90;99.90
10453;DHT22;5274;51.992;8.518;2022-12-19T04:04:53;1.00;99.90
10453;DHT22;5274;51.992;8.518;2022-12-19T04:07:20;0.90;99.90
10453;DHT22;5274;51.992;8.518;2022-12-19T04:09:47;1.00;99.90
10453;DHT22;5274;51.992;8.518;2022-12-19T04:12:17;1.00;99.90
10453;DHT22;5274;51.992;8.518;2022-12-19T04:14:44;1.00;99.90
10453;DHT22;5274;51.992;8.518;2022-12-19T04:20:12;1.00;99.90
10453;DHT22;5274;51.992;8.518;2022-12-19T04:23:00;1.00;99.90
10453;DHT22;5274;51.992;8.518;2022-12-19T04:25:38;1.10;99.90
10453;DHT22;5274;51.992;8.518;2022-12-19T04:28:13;1.20;1.00
10453;DHT22;5274;51.992;8.518;2022-12-19T04:30:40;1.10;1.00
10453;DHT22;5274;51.992;8.518;2022-12-19T04:33:07;1.10;1.00
10453;DHT22;5274;51.992;8.518;2022-12-19T04:35:33;1.10;13.20
10453;DHT22;5274;51.992;8.518;2022-12-19T04:37:59;1.10;98.20
10453;DHT22;5274;51.992;8.518;2022-12-19T04:40:25;1.10;90.80
10453;DHT22;5274;51.992;8.518;2022-12-19T04:42:50;1.10;99.90
10453;DHT22;5274;51.992;8.518;2022-12-19T04:45:16;1.00;99.90
10453;DHT22;5274;51.992;8.518;2022-12-19T04:47:41;1.00;1.00
10453;DHT22;5274;51.992;8.518;2022-12-19T04:50:08;1.00;1.00
10453;DHT22;5274;51.992;8.518;2022-12-19T04:52:33;0.90;1.00
10453;DHT22;5274;51.992;8.518;2022-12-19T04:54:59;1.00;1.00
10453;DHT22;5274;51.992;8.518;2022-12-19T04:57:28;1.00;1.00
10453;DHT22;5274;51.992;8.518;2022-12-19T04:59:54;1.00;1.00
10453;DHT22;5274;51.992;8.518;2022-12-19T05:02:19;1.00;1.00
10453;DHT22;5274;51.992;8.518;2022-12-19T05:04:45;1.00;1.00
10453;DHT22;5274;51.992;8.518;2022-12-19T05:07:12;1.00;1.00
10453;DHT22;5274;51.992;8.518;2022-12-19T05:09:38;1.10;99.90
10453;DHT22;5274;51.992;8.518;2022-12-19T05:12:04;1.10;1.00
10453;DHT22;5274;51.992;8.518;2022-12-19T05:14:31;1.10;1.00
10453;DHT22;5274;51.992;8.518;2022-12-19T05:16:56;1.10;1.00
10453;DHT22;5274;51.992;8.518;2022-12-19T05:19:22;1.10;1.00
10453;DHT22;5274;51.992;8.518;2022-12-19T05:21:48;1.10;1.00
10453;DHT22;5274;51.992;8.518;2022-12-19T05:24:13;1.10;1.00
10453;DHT22;5274;51.992;8.518;2022-12-19T05:26:39;1.10;1.00
10453;DHT22;5274;51.992;8.518;2022-12-19T05:29:04;1.10;1.00
10453;DHT22;5274;51.992;8.518;2022-12-19T05:31:30;1.10;1.00
10453;DHT22;5274;51.992;8.518;2022-12-19T05:33:56;1.20;1.00
10453;DHT22;5274;51.992;8.518;2022-12-19T05:36:21;1.10;1.00
10453;DHT22;5274;51.992;8.518;2022-12-19T05:38:47;1.10;1.00
10453;DHT22;5274;51.992;8.518;2022-12-19T05:41:18;1.10;1.00
10453;DHT22;5274;51.992;8.518;2022-12-19T05:43:47;1.10;1.00
10453;DHT22;5274;51.992;8.518;2022-12-19T05:46:13;1.10;1.00
10453;DHT22;5274;51.992;8.518;2022-12-19T05:48:38;1.10;1.00
10453;DHT22;5274;51.992;8.518;2022-12-19T05:51:04;1.10;1.00
10453;DHT22;5274;51.992;8.518;2022-12-19T05:53:30;1.10;1.00
10453;DHT22;5274;51.992;8.518;2022-12-19T05:56:25;1.10;1.00
10453;DHT22;5274;51.992;8.518;2022-12-19T05:58:50;1.10;1.00
10453;DHT22;5274;51.992;8.518;2022-12-19T06:01:18;1.20;1.00
10453;DHT22;5274;51.992;8.518;2022-12-19T06:03:45;1.10;1.00
10453;DHT22;5274;51.992;8.518;2022-12-19T06:06:13;1.20;1.00
10453;DHT22;5274;51.992;8.518;2022-12-19T06:08:39;1.20;1.00
10453;DHT22;5274;51.992;8.518;2022-12-19T06:11:07;1.20;1.00
10453;DHT22;5274;51.992;8.518;2022-12-19T06:13:33;1.20;1.00
10453;DHT22;5274;51.992;8.518;2022-12-19T06:16:07;1.20;1.00
10453;DHT22;5274;51.992;8.518;2022-12-19T06:18:34;1.30;1.00
10453;DHT22;5274;51.992;8.518;2022-12-19T06:21:02;1.30;1.00
10453;DHT22;5274;51.992;8.518;2022-12-19T06:23:29;1.30;1.00
10453;DHT22;5274;51.992;8.518;2022-12-19T06:25:56;1.30;1.00
10453;DHT22;5274;51.992;8.518;2022-12-19T06:28:22;1.30;1.00
10453;DHT22;5274;51.992;8.518;2022-12-19T06:30:48;1.30;2.00
10453;DHT22;5274;51.992;8.518;2022-12-19T06:33:13;1.30;1.00
10453;DHT22;5274;51.992;8.518;2022-12-19T06:35:39;1.30;11.20
10453;DHT22;5274;51.992;8.518;2022-12-19T06:38:05;1.30;16.50
10453;DHT22;5274;51.992;8.518;2022-12-19T06:40:30;1.40;31.50
10453;DHT22;5274;51.992;8.518;2022-12-19T06:43:15;1.40;37.20
10453;DHT22;5274;51.992;8.518;2022-12-19T06:45:40;1.40;39.70
10453;DHT22;5274;51.992;8.518;2022-12-19T06:48:06;1.40;45.20
10453;DHT22;5274;51.992;8.518;2022-12-19T06:50:31;1.50;49.10
10453;DHT22;5274;51.992;8.518;2022-12-19T06:52:57;1.50;53.20
10453;DHT22;5274;51.992;8.518;2022-12-19T06:55:22;1.50;59.30
10453;DHT22;5274;51.992;8.518;2022-12-19T06:57:48;1.50;59.70
10453;DHT22;5274;51.992;8.518;2022-12-19T07:00:14;1.50;83.10
10453;DHT22;5274;51.992;8.518;2022-12-19T07:02:44;1.50;98.40
10453;DHT22;5274;51.992;8.518;2022-12-19T07:05:11;1.50;99.90
10453;DHT22;5274;51.992;8.518;2022-12-19T07:07:37;1.50;99.90
10453;DHT22;5274;51.992;8.518;2022-12-19T07:10:04;1.50;99.90
10453;DHT22;5274;51.992;8.518;2022-12-19T07:12:30;1.50;99.90
10453;DHT22;5274;51.992;8.518;2022-12-19T07:14:55;1.50;99.90
10453;DHT22;5274;51.992;8.518;2022-12-19T07:17:23;1.50;99.90
10453;DHT22;5274;51.992;8.518;2022-12-19T07:19:50;1.50;99.90
10453;DHT22;5274;51.992;8.518;2022-12-19T07:22:17;1.50;99.90
10453;DHT22;5274;51.992;8.518;2022-12-19T07:24:43;1.50;99.90
10453;DHT22;5274;51.992;8.518;2022-12-19T07:27:08;1.50;99.90
10453;DHT22;5274;51.992;8.518;2022-12-19T07:29:34;1.50;99.90
10453;DHT22;5274;51.992;8.518;2022-12-19T07:31:59;1.50;99.90
10453;DHT22;5274;51.992;8.518;2022-12-19T07:34:25;1.50;99.90
10453;DHT22;5274;51.992;8.518;2022-12-19T07:36:50;1.50;99.90
10453;DHT22;5274;51.992;8.518;2022-12-19T07:39:16;1.50;99.90
10453;DHT22;5274;51.992;8.518;2022-12-19T07:41:42;1.60;99.90
10453;DHT22;5274;51.992;8.518;2022-12-19T07:44:07;1.60;99.90
10453;DHT22;5274;51.992;8.518;2022-12-19T07:46:33;1.60;99.90
10453;DHT22;5274;51.992;8.518;2022-12-19T07:48:59;1.60;99.90
10453;DHT22;5274;51.992;8.518;2022-12-19T07:51:24;1.70;99.90
10453;DHT22;5274;51.992;8.518;2022-12-19T07:53:50;1.80;99.90
10453;DHT22;5274;51.992;8.518;2022-12-19T07:56:16;1.80;99.90
10453;DHT22;5274;51.992;8.518;2022-12-19T07:58:42;1.80;99.90
10453;DHT22;5274;51.992;8.518;2022-12-19T08:01:09;1.80;99.90
10453;DHT22;5274;51.992;8.518;2022-12-19T08:03:36;1.90;99.90
10453;DHT22;5274;51.992;8.518;2022-12-19T08:06:05;1.90;99.90
10453;DHT22;5274;51.992;8.518;2022-12-19T08:08:32;1.90;99.90
10453;DHT22;5274;51.992;8.518;2022-12-19T08:11:08;2.00;99.90
10453;DHT22;5274;51.992;8.518;2022-12-19T08:13:34;2.10;99.90
10453;DHT22;5274;51.992;8.518;2022-12-19T08:16:00;2.10;99.90
10453;DHT22;5274;51.992;8.518;2022-12-19T08:18:26;2.10;99.90
10453;DHT22;5274;51.992;8.518;2022-12-19T08:20:51;2.20;99.90
10453;DHT22;5274;51.992;8.518;2022-12-19T08:23:18;2.30;99.90
10453;DHT22;5274;51.992;8.518;2022-12-19T08:25:43;2.30;99.90
10453;DHT22;5274;51.992;8.518;2022-12-19T08:28:09;2.30;99.90
10453;DHT22;5274;51.992;8.518;2022-12-19T08:30:37;2.40;99.90
10453;DHT22;5274;51.992;8.518;2022-12-19T08:33:03;2.40;99.90
10453;DHT22;5274;51.992;8.518;2022-12-19T08:35:30;2.50;99.90
10453;DHT22;5274;51.992;8.518;2022-12-19T08:37:56;2.50;99.90
10453;DHT22;5274;51.992;8.518;2022-12-19T08:40:22;2.60;99.90
10453;DHT22;5274;51.992;8.518;2022-12-19T08:42:48;2.60;99.90
10453;DHT22;5274;51.992;8.518;2022-12-19T08:45:15;2.70;99.90
10453;DHT22;5274;51.992;8.518;2022-12-19T08:47:41;2.70;99.90
10453;DHT22;5274;51.992;8.518;2022-12-19T08:50:08;2.80;99.90
10453;DHT22;5274;51.992;8.518;2022-12-19T08:52:34;2.90;99.90
10453;DHT22;5274;51.992;8.518;2022-12-19T08:54:59;2.90;99.90
10453;DHT22;5274;51.992;8.518;2022-12-19T08:57:25;3.00;99.90
10453;DHT22;5274;51.992;8.518;2022-12-19T08:59:51;3.00;99.90
10453;DHT22;5274;51.992;8.518;2022-12-19T09:02:16;3.00;99.90
10453;DHT22;5274;51.992;8.518;2022-12-19T09:04:42;3.10;99.90
10453;DHT22;5274;51.992;8.518;2022-12-19T09:07:07;3.20;99.90
10453;DHT22;5274;51.992;8.518;2022-12-19T09:09:33;3.20;99.90
10453;DHT22;5274;51.992;8.518;2022-12-19T09:11:58;3.30;99.90
10453;DHT22;5274;51.992;8.518;2022-12-19T09:14:24;3.30;99.90
10453;DHT22;5274;51.992;8.518;2022-12-19T09:16:49;3.30;99.90
10453;DHT22;5274;51.992;8.518;2022-12-19T09:19:15;3.40;99.90
10453;DHT22;5274;51.992;8.518;2022-12-19T09:21:41;3.40;99.90
10453;DHT22;5274;51.992;8.518;2022-12-19T09:24:07;3.50;99.90
10453;DHT22;5274;51.992;8.518;2022-12-19T09:26:34;3.50;99.90
10453;DHT22;5274;51.992;8.518;2022-12-19T09:29:00;3.60;99.90
10453;DHT22;5274;51.992;8.518;2022-12-19T09:31:26;3.70;99.90
10453;DHT22;5274;51.992;8.518;2022-12-19T09:33:52;3.70;99.90
10453;DHT22;5274;51.992;8.518;2022-12-19T09:36:19;3.70;99.90
10453;DHT22;5274;51.992;8.518;2022-12-19T09:38:46;3.80;99.90
10453;DHT22;5274;51.992;8.518;2022-12-19T09:41:33;3.80;99.90
10453;DHT22;5274;51.992;8.518;2022-12-19T09:46:58;3.90;99.90
10453;DHT22;5274;51.992;8.518;2022-12-19T09:49:27;4.00;99.90
10453;DHT22;5274;51.992;8.518;2022-12-19T09:52:17;4.00;99.90
10453;DHT22;5274;51.992;8.518;2022-12-19T09:57:50;4.20;99.90
10453;DHT22;5274;51.992;8.518;2022-12-19T10:00:19;4.30;99.90
10453;DHT22;5274;51.992;8.518;2022-12-19T10:03:14;4.30;99.90
10453;DHT22;5274;51.992;8.518;2022-12-19T10:05:46;4.30;99.90
10453;DHT22;5274;51.992;8.518;2022-12-19T10:08:16;4.40;99.90
10453;DHT22;5274;51.992;8.518;2022-12-19T10:10:46;4.50;99.90
10453;DHT22;5274;51.992;8.518;2022-12-19T10:16:15;4.60;99.90
10453;DHT22;5274;51.992;8.518;2022-12-19T10:18:50;4.70;99.90
10453;DHT22;5274;51.992;8.518;2022-12-19T10:27:40;4.90;99.90
10453;DHT22;5274;51.992;8.518;2022-12-19T10:30:18;4.90;99.90
10453;DHT22;5274;51.992;8.518;2022-12-19T10:32:55;5.00;99.90
10453;DHT22;5274;51.992;8.518;2022-12-19T10:35:29;5.00;99.90
10453;DHT22;5274;51.992;8.518;2022-12-19T10:40:48;5.10;99.90
10453;DHT22;5274;51.992;8.518;2022-12-19T10:46:22;5.20;99.90
10453;DHT22;5274;51.992;8.518;2022-12-19T10:48:52;5.20;99.90
10453;DHT22;5274;51.992;8.518;2022-12-19T10:51:23;5.20;99.90
10453;DHT22;5274;51.992;8.518;2022-12-19T10:53:55;5.20;99.90
10453;DHT22;5274;51.992;8.518;2022-12-19T10:56:27;5.20;99.90
10453;DHT22;5274;51.992;8.518;2022-12-19T10:58:54;5.20;99.90
10453;DHT22;5274;51.992;8.518;2022-12-19T11:01:30;5.30;99.90
10453;DHT22;5274;51.992;8.518;2022-12-19T11:09:37;5.40;99.90
10453;DHT22;5274;51.992;8.518;2022-12-19T11:14:32;5.50;99.90
10453;DHT22;5274;51.992;8.518;2022-12-19T11:16:58;5.60;99.90
10453;DHT22;5274;51.992;8.518;2022-12-19T11:21:52;5.70;99.90
10453;DHT22;5274;51.992;8.518;2022-12-19T11:24:40;5.70;99.90
10453;DHT22;5274;51.992;8.518;2022-12-19T11:27:32;5.70;99.90
10453;DHT22;5274;51.992;8.518;2022-12-19T11:30:01;5.80;99.90
10453;DHT22;5274;51.992;8.518;2022-12-19T11:32:39;5.90;99.90
10453;DHT22;5274;51.992;8.518;2022-12-19T11:35:25;5.90;99.90
10453;DHT22;5274;51.992;8.518;2022-12-19T11:37:57;5.90;99.90
10453;DHT22;5274;51.992;8.518;2022-12-19T11:40:44;5.90;99.90
10453;DHT22;5274;51.992;8.518;2022-12-19T11:43:29;5.90;99.90
10453;DHT22;5274;51.992;8.518;2022-12-19T11:46:03;6.00;99.90
10453;DHT22;5274;51.992;8.518;2022-12-19T11:48:45;5.90;99.90
10453;DHT22;5274;51.992;8.518;2022-12-19T11:53:59;6.00;99.90
10453;DHT22;5274;51.992;8.518;2022-12-19T11:56:27;6.00;99.90
10453;DHT22;5274;51.992;8.518;2022-12-19T11:58:59;6.10;99.90
10453;DHT22;5274;51.992;8.518;2022-12-19T12:04:15;6.20;99.90
10453;DHT22;5274;51.992;8.518;2022-12-19T12:06:51;6.10;99.90
10453;DHT22;5274;51.992;8.518;2022-12-19T12:09:42;6.20;99.90
10453;DHT22;5274;51.992;8.518;2022-12-19T12:17:20;6.30;99.90
10453;DHT22;5274;51.992;8.518;2022-12-19T12:28:10;6.30;99.90
10453;DHT22;5274;51.992;8.518;2022-12-19T12:34:12;6.20;99.90
10453;DHT22;5274;51.992;8.518;2022-12-19T12:39:19;6.20;99.90
10453;DHT22;5274;51.992;8.518;2022-12-19T12:44:34;6.20;99.90
10453;DHT22;5274;51.992;8.518;2022-12-19T12:47:25;6.20;99.90
10453;DHT22;5274;51.992;8.518;2022-12-19T12:49:57;6.20;99.90
10453;DHT22;5274;51.992;8.518;2022-12-19T12:52:39;6.20;99.90
10453;DHT22;5274;51.992;8.518;2022-12-19T12:55:17;6.30;99.90
10453;DHT22;5274;51.992;8.518;2022-12-19T12:57:44;6.30;99.90
10453;DHT22;5274;51.992;8.518;2022-12-19T13:00:18;6.30;99.90
10453;DHT22;5274;51.992;8.518;2022-12-19T13:08:36;6.20;99.90
10453;DHT22;5274;51.992;8.518;2022-12-19T13:11:14;6.20;99.90
10453;DHT22;5274;51.992;8.518;2022-12-19T13:17:05;6.10;99.90
10453;DHT22;5274;51.992;8.518;2022-12-19T13:19:36;6.20;99.90
10453;DHT22;5274;51.992;8.518;2022-12-19T13:24:51;6.10;99.90
10453;DHT22;5274;51.992;8.518;2022-12-19T13:37:40;6.20;99.90
10453;DHT22;5274;51.992;8.518;2022-12-19T13:46:04;6.30;99.90
10453;DHT22;5274;51.992;8.518;2022-12-19T13:48:34;6.40;99.90
10453;DHT22;5274;51.992;8.518;2022-12-19T13:51:07;6.30;99.90
10453;DHT22;5274;51.992;8.518;2022-12-19T13:53:34;6.30;99.90
10453;DHT22;5274;51.992;8.518;2022-12-19T13:56:08;6.30;99.90
10453;DHT22;5274;51.992;8.518;2022-12-19T13:58:48;6.20;99.20
10453;DHT22;5274;51.992;8.518;2022-12-19T14:01:30;6.20;99.40
10453;DHT22;5274;51.992;8.518;2022-12-19T14:04:03;6.20;94.60
10453;DHT22;5274;51.992;8.518;2022-12-19T14:06:43;6.30;88.00
10453;DHT22;5274;51.992;8.518;2022-12-19T14:09:20;6.30;66.30
10453;DHT22;5274;51.992;8.518;2022-12-19T14:11:48;6.30;50.90
10453;DHT22;5274;51.992;8.518;2022-12-19T14:14:17;6.30;71.40
10453;DHT22;5274;51.992;8.518;2022-12-19T14:17:12;6.30;31.40
10453;DHT22;5274;51.992;8.518;2022-12-19T14:19:44;6.30;1.00
10453;DHT22;5274;51.992;8.518;2022-12-19T14:25:00;6.40;1.00
10453;DHT22;5274;51.992;8.518;2022-12-19T14:27:36;6.40;1.00
10453;DHT22;5274;51.992;8.518;2022-12-19T14:30:25;6.30;1.00
10453;DHT22;5274;51.992;8.518;2022-12-19T14:32:53;6.30;1.00
10453;DHT22;5274;51.992;8.518;2022-12-19T14:35:24;6.40;1.00
10453;DHT22;5274;51.992;8.518;2022-12-19T14:38:00;6.40;1.00
10453;DHT22;5274;51.992;8.518;2022-12-19T14:40:29;6.40;1.00
10453;DHT22;5274;51.992;8.518;2022-12-19T14:43:02;6.40;1.00
10453;DHT22;5274;51.992;8.518;2022-12-19T14:45:47;6.40;1.00
10453;DHT22;5274;51.992;8.518;2022-12-19T14:53:33;6.30;1.00
10453;DHT22;5274;51.992;8.518;2022-12-19T14:56:05;6.40;1.00
10453;DHT22;5274;51.992;8.518;2022-12-19T14:58:34;6.30;1.00
10453;DHT22;5274;51.992;8.518;2022-12-19T15:01:02;6.30;1.00
10453;DHT22;5274;51.992;8.518;2022-12-19T15:03:37;6.30;1.00
10453;DHT22;5274;51.992;8.518;2022-12-19T15:06:06;6.30;1.00
10453;DHT22;5274;51.992;8.518;2022-12-19T15:08:34;6.30;1.00
10453;DHT22;5274;51.992;8.518;2022-12-19T15:11:02;6.30;1.00
10453;DHT22;5274;51.992;8.518;2022-12-19T15:13:56;6.30;1.00
10453;DHT22;5274;51.992;8.518;2022-12-19T15:18:50;6.20;1.00
10453;DHT22;5274;51.992;8.518;2022-12-19T15:21:17;6.10;1.00
10453;DHT22;5274;51.992;8.518;2022-12-19T15:23:43;6.10;1.00
10453;DHT22;5274;51.992;8.518;2022-12-19T15:26:14;6.10;1.00
10453;DHT22;5274;51.992;8.518;2022-12-19T15:28:49;6.00;99.90
10453;DHT22;5274;51.992;8.518;2022-12-19T15:31:34;6.00;1.00
10453;DHT22;5274;51.992;8.518;2022-12-19T15:36:38;5.90;99.90
10453;DHT22;5274;51.992;8.518;2022-12-19T15:39:03;5.90;99.90
10453;DHT22;5274;51.992;8.518;2022-12-19T15:41:29;5.90;99.90
10453;DHT22;5274;51.992;8.518;2022-12-19T15:43:55;5.90;99.90
10453;DHT22;5274;51.992;8.518;2022-12-19T15:46:28;5.90;99.90
10453;DHT22;5274;51.992;8.518;2022-12-19T15:48:54;5.90;40.20
10453;DHT22;5274;51.992;8.518;2022-12-19T15:51:19;5.90;99.90
10453;DHT22;5274;51.992;8.518;2022-12-19T15:53:45;5.90;88.00
10453;DHT22;5274;51.992;8.518;2022-12-19T15:56:24;5.90;1.00
10453;DHT22;5274;51.992;8.518;2022-12-19T15:58:51;5.90;1.00
10453;DHT22;5274;51.992;8.518;2022-12-19T16:01:18;5.80;1.00
10453;DHT22;5274;51.992;8.518;2022-12-19T16:03:43;5.80;1.00
10453;DHT22;5274;51.992;8.518;2022-12-19T16:06:13;5.90;1.00
10453;DHT22;5274;51.992;8.518;2022-12-19T16:08:39;5.90;1.00
10453;DHT22;5274;51.992;8.518;2022-12-19T16:11:05;5.90;1.00
10453;DHT22;5274;51.992;8.518;2022-12-19T16:13:32;5.90;1.00
10453;DHT22;5274;51.992;8.518;2022-12-19T16:15:59;5.90;1.00
10453;DHT22;5274;51.992;8.518;2022-12-19T16:18:25;6.00;1.00
10453;DHT22;5274;51.992;8.518;2022-12-19T16:20:51;6.00;1.00
10453;DHT22;5274;51.992;8.518;2022-12-19T16:23:17;6.00;1.00
10453;DHT22;5274;51.992;8.518;2022-12-19T16:25:45;6.00;99.90
10453;DHT22;5274;51.992;8.518;2022-12-19T16:28:24;6.00;99.90
10453;DHT22;5274;51.992;8.518;2022-12-19T16:30:51;6.10;99.90
10453;DHT22;5274;51.992;8.518;2022-12-19T16:33:23;6.10;1.00
10453;DHT22;5274;51.992;8.518;2022-12-19T16:35:50;6.10;1.00
10453;DHT22;5274;51.992;8.518;2022-12-19T16:38:16;6.10;99.90
10453;DHT22;5274;51.992;8.518;2022-12-19T16:40:43;6.10;33.80
10453;DHT22;5274;51.992;8.518;2022-12-19T16:43:29;6.10;1.00
10453;DHT22;5274;51.992;8.518;2022-12-19T16:45:56;6.20;99.90
10453;DHT22;5274;51.992;8.518;2022-12-19T16:48:24;6.20;99.90
10453;DHT22;5274;51.992;8.518;2022-12-19T16:50:50;6.10;1.00
10453;DHT22;5274;51.992;8.518;2022-12-19T16:53:16;6.10;99.90
10453;DHT22;5274;51.992;8.518;2022-12-19T16:55:42;6.10;99.90
10453;DHT22;5274;51.992;8.518;2022-12-19T16:58:15;6.10;99.90
10453;DHT22;5274;51.992;8.518;2022-12-19T17:00:43;6.10;99.90
10453;DHT22;5274;51.992;8.518;2022-12-19T17:03:28;6.10;99.90
10453;DHT22;5274;51.992;8.518;2022-12-19T17:05:56;6.10;99.90
10453;DHT22;5274;51.992;8.518;2022-12-19T17:08:22;6.20;99.90
10453;DHT22;5274;51.992;8.518;2022-12-19T17:10:47;6.20;1.00
10453;DHT22;5274;51.992;8.518;2022-12-19T17:13:14;6.20;1.00
10453;DHT22;5274;51.992;8.518;2022-12-19T17:15:42;6.30;99.90
10453;DHT22;5274;51.992;8.518;2022-12-19T17:18:19;6.30;1.00
10453;DHT22;5274;51.992;8.518;2022-12-19T17:20:47;6.20;77.40
10453;DHT22;5274;51.992;8.518;2022-12-19T17:23:14;6.20;99.90
10453;DHT22;5274;51.992;8.518;2022-12-19T17:25:40;6.10;99.90
10453;DHT22;5274;51.992;8.518;2022-12-19T17:28:06;6.10;1.00
10453;DHT22;5274;51.992;8.518;2022-12-19T17:30:34;6.10;1.00
10453;DHT22;5274;51.992;8.518;2022-12-19T17:32:59;6.10;1.00
10453;DHT22;5274;51.992;8.518;2022-12-19T17:35:29;6.00;1.00
10453;DHT22;5274;51.992;8.518;2022-12-19T17:37:56;6.00;33.90
10453;DHT22;5274;51.992;8.518;2022-12-19T17:40:25;6.10;1.00
10453;DHT22;5274;51.992;8.518;2022-12-19T17:42:51;6.10;1.00
10453;DHT22;5274;51.992;8.518;2022-12-19T17:45:17;6.20;99.90
10453;DHT22;5274;51.992;8.518;2022-12-19T17:47:44;6.20;1.00
10453;DHT22;5274;51.992;8.518;2022-12-19T17:50:25;6.20;1.00
10453;DHT22;5274;51.992;8.518;2022-12-19T17:52:51;6.30;99.90
10453;DHT22;5274;51.992;8.518;2022-12-19T17:55:19;6.40;1.00
10453;DHT22;5274;51.992;8.518;2022-12-19T17:57:45;6.40;1.00
10453;DHT22;5274;51.992;8.518;2022-12-19T18:00:12;6.40;99.90
10453;DHT22;5274;51.992;8.518;2022-12-19T18:02:38;6.40;99.80
10453;DHT22;5274;51.992;8.518;2022-12-19T18:05:05;6.40;99.90
10453;DHT22;5274;51.992;8.518;2022-12-19T18:07:30;6.40;99.90
10453;DHT22;5274;51.992;8.518;2022-12-19T18:09:56;6.40;99.90
10453;DHT22;5274;51.992;8.518;2022-12-19T18:12:22;6.40;99.90
10453;DHT22;5274;51.992;8.518;2022-12-19T18:14:47;6.40;1.00
10453;DHT22;5274;51.992;8.518;2022-12-19T18:17:19;6.50;99.90
10453;DHT22;5274;51.992;8.518;2022-12-19T18:19:46;6.50;1.00
10453;DHT22;5274;51.992;8.518;2022-12-19T18:22:12;6.40;1.00
10453;DHT22;5274;51.992;8.518;2022-12-19T18:24:38;6.40;1.00
10453;DHT22;5274;51.992;8.518;2022-12-19T18:27:04;6.40;99.90
10453;DHT22;5274;51.992;8.518;2022-12-19T18:29:30;6.40;40.50
10453;DHT22;5274;51.992;8.518;2022-12-19T18:31:55;6.40;99.90